Time;durP1;ratioP1;P1;durP2;ratioP2;P2;SDS_P1;SDS_P2;PMS_P1;PMS_P2;Temp;Humidity;BMP_temperature;BMP_pressure;BME280_temperature;BME280_humidity;BME280_pressure;Samples;Min_cycle;Max_cycle;Signal;HPM_P1;HPM_P2
2021/12/25 00:01:14;;;;;;;11.60;5.93;;;8.10;99.90;;;;;;5032204;28;20447;-75
2021/12/25 00:03:40;;;;;;;9.60;5.83;;;8.10;99.90;;;;;;5024617;28;20462;-74
2021/12/25 00:06:07;;;;;;;14.60;6.27;;;8.20;99.90;;;;;;5048154;28;20463;-74
2021/12/25 00:08:33;;;;;;;26.27;14.37;;;8.10;99.90;;;;;;5029832;28;20230;-73
2021/12/25 00:11:00;;;;;;;186.33;84.43;;;8.20;99.90;;;;;;5043161;28;20841;-75
2021/12/25 00:13:25;;;;;;;124.17;57.17;;;8.10;99.90;;;;;;5019559;28;20554;-75
2021/12/25 00:15:52;;;;;;;59.67;29.50;;;8.10;99.90;;;;;;5013717;28;20542;-75
2021/12/25 00:18:19;;;;;;;40.30;19.47;;;8.10;99.90;;;;;;5031848;28;20216;-75
2021/12/25 00:20:45;;;;;;;37.60;19.17;;;8.10;99.90;;;;;;5011615;28;20466;-74
2021/12/25 00:23:11;;;;;;;40.97;18.70;;;8.10;99.90;;;;;;5010164;28;20467;-74
2021/12/25 00:25:51;;;;;;;38.43;17.33;;;8.10;99.90;;;;;;5013457;28;20475;-75
2021/12/25 00:36:27;;;;;;;17.83;12.27;;;8.10;99.90;;;;;;5030026;28;20642;-75
2021/12/25 00:38:54;;;;;;;22.97;11.90;;;8.10;99.90;;;;;;5029672;28;20459;-75
2021/12/25 00:41:22;;;;;;;15.90;10.20;;;8.10;99.90;;;;;;5014266;28;20451;-74
2021/12/25 00:43:48;;;;;;;16.90;8.80;;;8.00;99.90;;;;;;4996214;28;20506;-75
2021/12/25 00:46:14;;;;;;;15.27;9.07;;;8.10;99.90;;;;;;5030546;28;20582;-74
2021/12/25 00:48:40;;;;;;;15.50;8.10;;;8.00;99.90;;;;;;5012441;28;20539;-74
2021/12/25 00:51:06;;;;;;;17.03;10.10;;;8.00;99.90;;;;;;5007519;28;20316;-73
2021/12/25 00:53:32;;;;;;;23.63;13.07;;;8.00;99.90;;;;;;5029342;28;20224;-75
2021/12/25 00:55:58;;;;;;;25.97;12.50;;;8.00;99.90;;;;;;5011019;28;20888;-75
2021/12/25 00:58:23;;;;;;;25.13;11.20;;;8.00;99.90;;;;;;5012536;28;20274;-75
2021/12/25 01:00:51;;;;;;;13.93;8.20;;;8.00;99.90;;;;;;5029326;28;20217;-75
2021/12/25 01:03:16;;;;;;;18.57;8.00;;;8.00;99.90;;;;;;5021110;28;20513;-74
2021/12/25 01:05:42;;;;;;;11.33;6.40;;;7.90;99.90;;;;;;5033118;28;20493;-76
2021/12/25 01:08:10;;;;;;;17.60;8.20;;;7.90;99.90;;;;;;5013282;28;20223;-74
2021/12/25 01:10:36;;;;;;;8.83;7.00;;;7.90;99.90;;;;;;5012292;28;20296;-74
2021/12/25 01:18:38;;;;;;;7.40;5.33;;;7.90;99.90;;;;;;5029340;28;20479;-73
2021/12/25 01:49:04;;;;;;;11.10;6.70;;;7.80;99.90;;;;;;5022007;28;20495;-73
2021/12/25 01:51:29;;;;;;;10.03;6.17;;;7.80;99.90;;;;;;5010932;28;20467;-74
2021/12/25 01:53:55;;;;;;;6.27;4.47;;;7.80;99.90;;;;;;5011169;28;20239;-75
2021/12/25 01:56:22;;;;;;;6.73;4.00;;;7.80;99.90;;;;;;4997397;28;20308;-74
2021/12/25 01:58:48;;;;;;;4.87;3.50;;;7.80;99.90;;;;;;4993150;28;20705;-75
2021/12/25 02:01:14;;;;;;;6.13;4.13;;;7.80;99.90;;;;;;5031800;28;20449;-73
2021/12/25 02:03:41;;;;;;;5.23;3.90;;;7.80;99.90;;;;;;5010212;28;20567;-75
2021/12/25 02:06:09;;;;;;;4.10;3.40;;;7.80;99.90;;;;;;5023216;28;20460;-73
2021/12/25 02:08:38;;;;;;;4.20;2.90;;;7.80;99.90;;;;;;5012855;28;20452;-75
2021/12/25 02:11:06;;;;;;;7.20;3.50;;;7.80;99.90;;;;;;5012103;28;20448;-75
2021/12/25 02:13:32;;;;;;;5.00;3.00;;;7.80;99.90;;;;;;5011497;28;20459;-75
2021/12/25 02:16:00;;;;;;;4.10;3.20;;;7.80;99.90;;;;;;5010462;28;20539;-73
2021/12/25 02:21:09;;;;;;;8.43;6.30;;;7.80;99.90;;;;;;5028328;28;20485;-75
2021/12/25 02:23:36;;;;;;;10.70;7.20;;;7.80;99.90;;;;;;5000977;28;20509;-75
2021/12/25 02:26:04;;;;;;;11.40;7.50;;;7.80;99.90;;;;;;4992293;28;20995;-74
2021/12/25 02:28:30;;;;;;;8.70;6.00;;;7.80;99.90;;;;;;4992458;28;20458;-75
2021/12/25 02:31:03;;;;;;;9.27;6.20;;;7.80;99.90;;;;;;5011166;28;20417;-75
2021/12/25 02:33:29;;;;;;;6.93;4.97;;;7.80;99.90;;;;;;5011330;28;20464;-75
2021/12/25 02:35:55;;;;;;;5.83;4.43;;;7.80;99.90;;;;;;5011409;28;20561;-75
2021/12/25 02:38:21;;;;;;;11.23;6.40;;;7.80;99.90;;;;;;5012421;28;21031;-75
2021/12/25 02:40:48;;;;;;;8.07;5.50;;;7.80;99.90;;;;;;5011774;28;20463;-75
2021/12/25 02:43:13;;;;;;;9.63;5.50;;;7.80;99.90;;;;;;5011348;28;20994;-74
2021/12/25 02:45:39;;;;;;;9.00;5.27;;;7.80;99.90;;;;;;5010937;28;20466;-75
2021/12/25 02:48:08;;;;;;;8.50;5.40;;;7.80;99.90;;;;;;5010706;28;20742;-73
2021/12/25 02:50:34;;;;;;;8.10;5.30;;;7.80;99.90;;;;;;5005674;28;20354;-76
2021/12/25 02:53:01;;;;;;;6.10;4.00;;;7.80;99.90;;;;;;5011949;28;20452;-75
2021/12/25 02:55:28;;;;;;;6.97;4.80;;;7.80;99.90;;;;;;5007792;28;20546;-75
2021/12/25 02:57:55;;;;;;;7.20;5.03;;;7.80;99.90;;;;;;5006272;28;20578;-75
2021/12/25 03:00:29;;;;;;;6.80;4.60;;;7.80;99.90;;;;;;5008397;28;20462;-74
2021/12/25 03:02:55;;;;;;;5.87;4.70;;;7.80;99.90;;;;;;5010585;28;20529;-75
2021/12/25 03:05:21;;;;;;;6.47;5.07;;;7.80;99.90;;;;;;5024182;28;20456;-75
2021/12/25 03:07:47;;;;;;;7.70;4.60;;;7.80;99.90;;;;;;5018644;28;20462;-73
2021/12/25 03:10:15;;;;;;;7.00;4.90;;;7.80;99.90;;;;;;5023957;28;20231;-75
2021/12/25 03:13:04;;;;;;;5.50;4.30;;;7.80;99.90;;;;;;5037564;28;20291;-75
2021/12/25 03:15:41;;;;;;;6.30;4.40;;;7.80;99.90;;;;;;5011528;28;20843;-75
2021/12/25 03:18:07;;;;;;;5.80;4.67;;;7.80;99.90;;;;;;5011324;28;20446;-74
2021/12/25 03:20:34;;;;;;;5.60;4.17;;;7.80;99.90;;;;;;5023332;28;20982;-75
2021/12/25 03:23:00;;;;;;;4.37;3.97;;;7.80;99.90;;;;;;5025402;28;20557;-74
2021/12/25 03:25:26;;;;;;;5.87;4.93;;;7.80;99.90;;;;;;5008890;28;20455;-74
2021/12/25 03:27:51;;;;;;;5.40;4.30;;;7.80;99.90;;;;;;5027221;28;20467;-75
2021/12/25 03:30:20;;;;;;;7.23;4.47;;;7.80;99.90;;;;;;5012501;28;20220;-75
2021/12/25 03:32:47;;;;;;;8.23;4.70;;;7.80;99.90;;;;;;5009554;28;20278;-74
2021/12/25 03:35:14;;;;;;;7.40;5.13;;;7.70;99.90;;;;;;5010939;28;20463;-75
2021/12/25 03:37:39;;;;;;;6.00;4.27;;;7.70;99.90;;;;;;5029058;28;20526;-74
2021/12/25 03:40:06;;;;;;;7.13;3.90;;;7.80;99.90;;;;;;5032628;28;20518;-73
2021/12/25 03:42:32;;;;;;;8.20;4.50;;;7.80;99.90;;;;;;5014268;28;20209;-74
2021/12/25 03:44:58;;;;;;;6.20;4.13;;;7.70;99.90;;;;;;5013738;28;20444;-72
2021/12/25 03:47:28;;;;;;;6.03;4.10;;;7.80;99.90;;;;;;5031911;28;20224;-74
2021/12/25 03:58:14;;;;;;;6.63;4.53;;;7.80;99.90;;;;;;5014370;28;20490;-74
2021/12/25 04:00:42;;;;;;;10.00;3.70;;;7.80;99.90;;;;;;5029769;28;20946;-74
2021/12/25 04:03:15;;;;;;;5.67;4.03;;;7.80;99.90;;;;;;5013738;28;20478;-74
2021/12/25 04:05:44;;;;;;;5.40;3.67;;;7.80;99.90;;;;;;5012703;28;20478;-75
2021/12/25 04:08:13;;;;;;;6.67;4.10;;;7.80;99.90;;;;;;5013844;28;20455;-75
2021/12/25 04:10:43;;;;;;;6.90;4.20;;;7.80;99.90;;;;;;5031474;28;20540;-74
2021/12/25 04:13:12;;;;;;;9.20;4.90;;;7.80;99.90;;;;;;5013673;28;20447;-75
2021/12/25 04:15:39;;;;;;;9.00;4.93;;;7.80;99.90;;;;;;5013160;28;20463;-75
2021/12/25 04:18:05;;;;;;;6.60;4.20;;;7.80;99.90;;;;;;5014647;28;20459;-73
2021/12/25 04:20:32;;;;;;;5.80;4.00;;;7.70;99.90;;;;;;5014296;28;20502;-75
2021/12/25 04:23:03;;;;;;;6.40;3.87;;;7.80;99.90;;;;;;5012938;28;20443;-75
2021/12/25 04:25:32;;;;;;;6.80;3.60;;;7.80;99.90;;;;;;5013570;28;20455;-75
2021/12/25 04:28:05;;;;;;;5.27;4.03;;;7.70;99.90;;;;;;5013618;28;20509;-75
2021/12/25 05:04:02;;;;;;;6.47;4.37;;;7.80;99.90;;;;;;5016492;28;20486;-73
2021/12/25 05:06:42;;;;;;;7.47;5.07;;;7.80;99.90;;;;;;5012618;28;20463;-75
2021/12/25 05:09:08;;;;;;;6.13;4.30;;;7.80;99.90;;;;;;5013710;28;20470;-74
2021/12/25 05:11:34;;;;;;;8.67;4.73;;;7.80;99.90;;;;;;5012753;28;20693;-76
2021/12/25 05:14:00;;;;;;;6.50;5.33;;;7.80;99.90;;;;;;5015642;28;20341;-74
2021/12/25 05:16:36;;;;;;;6.63;4.77;;;7.80;99.90;;;;;;4997548;28;20455;-75
2021/12/25 05:19:02;;;;;;;6.67;4.40;;;7.80;99.90;;;;;;4993660;28;20456;-75
2021/12/25 05:21:28;;;;;;;7.07;4.53;;;7.80;99.90;;;;;;4997625;28;20236;-72
2021/12/25 05:23:54;;;;;;;6.83;5.13;;;7.80;99.90;;;;;;5012910;28;20447;-74
2021/12/25 05:26:23;;;;;;;7.30;4.60;;;7.80;99.90;;;;;;5029290;28;20490;-75
2021/12/25 05:28:57;;;;;;;6.93;4.87;;;7.80;99.90;;;;;;5012623;28;20838;-75
2021/12/25 05:31:24;;;;;;;6.40;4.40;;;7.80;99.90;;;;;;5013044;28;20587;-74
2021/12/25 05:34:08;;;;;;;6.17;3.90;;;7.80;99.90;;;;;;5030299;28;20483;-74
2021/12/25 05:37:04;;;;;;;5.07;3.80;;;7.80;99.90;;;;;;4942437;28;20467;-73
2021/12/25 05:39:32;;;;;;;4.83;3.60;;;7.80;99.90;;;;;;5030877;28;20452;-74
2021/12/25 05:41:59;;;;;;;4.57;3.20;;;7.80;99.90;;;;;;5011554;28;20470;-74
2021/12/25 05:44:26;;;;;;;2.87;2.50;;;7.80;99.90;;;;;;5011433;28;20466;-73
2021/12/25 05:47:02;;;;;;;4.03;3.23;;;7.80;99.90;;;;;;5012296;28;20512;-72
2021/12/25 05:49:29;;;;;;;3.90;2.97;;;7.80;99.90;;;;;;5012615;28;20451;-72
2021/12/25 05:52:09;;;;;;;3.73;2.83;;;7.80;99.90;;;;;;4997633;28;20454;-72
2021/12/25 05:54:52;;;;;;;3.77;2.70;;;7.80;99.90;;;;;;5004832;28;20455;-74
2021/12/25 05:57:36;;;;;;;3.67;2.70;;;7.70;99.90;;;;;;5015139;28;20466;-73
2021/12/25 06:00:12;;;;;;;6.10;3.10;;;7.80;99.90;;;;;;5012265;28;20832;-74
2021/12/25 06:02:41;;;;;;;2.63;2.43;;;7.80;99.90;;;;;;5010037;28;20451;-73
2021/12/25 06:05:08;;;;;;;3.80;3.00;;;7.80;99.90;;;;;;5011691;28;20459;-74
2021/12/25 06:07:35;;;;;;;3.10;2.70;;;7.80;99.90;;;;;;5012345;28;20471;-74
2021/12/25 06:10:07;;;;;;;3.03;2.50;;;7.80;99.90;;;;;;5017657;28;20829;-74
2021/12/25 06:12:33;;;;;;;3.53;2.80;;;7.80;99.90;;;;;;5032342;28;20220;-74
2021/12/25 06:15:02;;;;;;;4.27;3.40;;;7.80;99.90;;;;;;5015570;28;20504;-74
2021/12/25 06:18:00;;;;;;;3.80;2.50;;;7.80;99.90;;;;;;5016104;28;20449;-74
2021/12/25 06:20:30;;;;;;;3.13;2.80;;;7.80;99.90;;;;;;5015267;28;20455;-74
2021/12/25 06:23:30;;;;;;;2.87;2.60;;;7.80;99.90;;;;;;5006600;28;20529;-74
2021/12/25 06:26:14;;;;;;;4.37;2.67;;;7.80;99.90;;;;;;5029898;28;20525;-74
2021/12/25 06:29:07;;;;;;;2.93;2.67;;;7.80;99.90;;;;;;5012038;28;20955;-73
2021/12/25 06:32:05;;;;;;;3.57;3.10;;;7.80;99.90;;;;;;4989288;28;20521;-75
2021/12/25 06:34:49;;;;;;;5.13;3.43;;;7.80;99.90;;;;;;5028525;28;20481;-74
2021/12/25 06:37:33;;;;;;;8.97;5.60;;;7.80;99.90;;;;;;5029789;28;20469;-75
2021/12/25 06:40:10;;;;;;;11.33;7.03;;;7.80;99.90;;;;;;5012751;28;20542;-74
2021/12/25 06:42:39;;;;;;;9.40;6.97;;;7.80;99.90;;;;;;5010423;28;20459;-74
2021/12/25 06:45:05;;;;;;;8.77;6.10;;;7.80;99.90;;;;;;5008639;28;20526;-74
2021/12/25 06:47:32;;;;;;;5.67;4.73;;;7.70;99.90;;;;;;5011956;28;20470;-74
2021/12/25 06:50:01;;;;;;;6.47;5.30;;;7.70;99.90;;;;;;5023000;28;20448;-74
2021/12/25 06:52:45;;;;;;;7.50;5.80;;;7.70;99.90;;;;;;5032616;28;20540;-74
2021/12/25 06:55:47;;;;;;;11.27;6.63;;;7.70;99.90;;;;;;5015412;28;20460;-73
2021/12/25 06:58:20;;;;;;;9.37;6.87;;;7.70;99.90;;;;;;5015842;28;20473;-74
2021/12/25 07:00:46;;;;;;;15.43;8.17;;;7.70;99.90;;;;;;4998888;28;20858;-74
2021/12/25 07:03:11;;;;;;;16.37;8.53;;;7.70;99.90;;;;;;5026871;28;20239;-74
2021/12/25 07:05:56;;;;;;;11.93;7.87;;;7.70;99.90;;;;;;5017743;28;20310;-74
2021/12/25 07:08:48;;;;;;;18.50;8.13;;;7.70;99.90;;;;;;5015351;28;20463;-74
2021/12/25 07:11:21;;;;;;;14.67;8.83;;;7.60;99.90;;;;;;5031614;28;20519;-74
2021/12/25 07:14:16;;;;;;;10.70;7.70;;;7.70;99.90;;;;;;5000448;28;20999;-74
2021/12/25 07:16:48;;;;;;;12.60;8.23;;;7.70;99.90;;;;;;5013032;28;20470;-74
2021/12/25 07:19:33;;;;;;;11.30;7.43;;;7.70;99.90;;;;;;5016796;28;20520;-75
2021/12/25 07:22:03;;;;;;;15.03;8.77;;;7.70;99.90;;;;;;5015549;28;20534;-74
2021/12/25 07:24:32;;;;;;;12.00;7.90;;;7.70;99.90;;;;;;5015736;28;20456;-75
2021/12/25 07:27:16;;;;;;;12.87;6.30;;;7.60;99.90;;;;;;5033031;28;20516;-74
2021/12/25 07:29:53;;;;;;;11.03;6.70;;;7.60;99.90;;;;;;5016052;28;20459;-74
2021/12/25 07:32:19;;;;;;;12.67;7.37;;;7.60;99.90;;;;;;5032168;28;20438;-74
2021/12/25 07:34:46;;;;;;;11.70;7.90;;;7.60;99.90;;;;;;5014072;28;20258;-72
2021/12/25 07:37:13;;;;;;;9.50;5.80;;;7.60;99.90;;;;;;5014711;28;20220;-74
2021/12/25 07:39:40;;;;;;;9.47;5.77;;;7.60;99.90;;;;;;5032091;28;20497;-74
2021/12/25 07:42:07;;;;;;;16.43;6.63;;;7.60;99.90;;;;;;5031034;28;20490;-73
2021/12/25 07:44:55;;;;;;;11.07;7.30;;;7.60;99.90;;;;;;5015370;28;20447;-74
2021/12/25 07:47:23;;;;;;;15.83;8.40;;;7.60;99.90;;;;;;5014609;28;20474;-74
2021/12/25 07:49:50;;;;;;;19.97;10.27;;;7.60;99.90;;;;;;5029959;28;20994;-74
2021/12/25 07:52:16;;;;;;;22.70;10.90;;;7.60;99.90;;;;;;5014009;28;20500;-74
2021/12/25 07:54:42;;;;;;;16.67;9.47;;;7.60;99.90;;;;;;5014277;28;20451;-74
2021/12/25 07:57:08;;;;;;;20.00;8.43;;;7.60;99.90;;;;;;5015189;28;20508;-73
2021/12/25 07:59:33;;;;;;;17.23;8.17;;;7.60;99.90;;;;;;5032566;28;20463;-74
2021/12/25 08:01:59;;;;;;;10.63;6.77;;;7.60;99.90;;;;;;5013689;28;20215;-74
2021/12/25 08:04:25;;;;;;;10.00;5.60;;;7.50;99.90;;;;;;5031401;28;20268;-74
2021/12/25 08:06:50;;;;;;;10.20;5.10;;;7.50;99.90;;;;;;5013990;28;20236;-74
2021/12/25 08:09:28;;;;;;;12.40;5.80;;;7.50;99.90;;;;;;5014898;28;20220;-74
2021/12/25 08:11:55;;;;;;;7.70;4.67;;;7.50;99.90;;;;;;4997661;28;20297;-74
2021/12/25 08:14:23;;;;;;;7.03;4.60;;;7.50;99.90;;;;;;5013806;28;20522;-74
2021/12/25 08:16:48;;;;;;;8.30;4.50;;;7.50;99.90;;;;;;5024220;28;20533;-74
2021/12/25 08:19:14;;;;;;;8.43;5.17;;;7.40;99.90;;;;;;5014158;28;20479;-74
2021/12/25 08:21:59;;;;;;;7.07;4.87;;;7.40;99.90;;;;;;5020123;28;20454;-74
2021/12/25 08:24:43;;;;;;;5.43;4.33;;;7.40;99.90;;;;;;5031468;28;20474;-72
2021/12/25 08:27:27;;;;;;;5.77;4.17;;;7.40;99.90;;;;;;5032090;28;20466;-75
2021/12/25 08:30:15;;;;;;;5.00;4.03;;;7.40;99.90;;;;;;5016634;28;20827;-73
2021/12/25 08:32:59;;;;;;;4.43;4.00;;;7.40;99.90;;;;;;5014744;28;20445;-74
2021/12/25 08:36:03;;;;;;;6.10;4.10;;;7.40;99.90;;;;;;5018966;28;20505;-73
2021/12/25 08:38:29;;;;;;;7.23;4.17;;;7.40;99.90;;;;;;5030775;28;20460;-73
2021/12/25 08:40:55;;;;;;;5.53;4.20;;;7.40;99.90;;;;;;5013223;28;20294;-74
2021/12/25 08:43:24;;;;;;;3.90;3.10;;;7.30;99.90;;;;;;5012297;28;20219;-73
2021/12/25 08:46:01;;;;;;;10.37;5.90;;;7.20;99.90;;;;;;5011399;28;20455;-74
2021/12/25 08:48:27;;;;;;;69.27;27.23;;;7.20;99.90;;;;;;5010033;28;20535;-74
2021/12/25 08:50:55;;;;;;;74.33;27.97;;;7.20;99.90;;;;;;5014257;28;20550;-74
2021/12/25 08:53:23;;;;;;;38.87;17.87;;;7.20;99.90;;;;;;4993635;28;20307;-74
2021/12/25 08:55:51;;;;;;;16.20;9.17;;;7.20;99.90;;;;;;5012943;28;20455;-74
2021/12/25 08:58:17;;;;;;;7.27;5.50;;;7.10;99.90;;;;;;4997758;28;20505;-74
2021/12/25 09:00:44;;;;;;;8.37;4.50;;;7.10;99.90;;;;;;5030211;28;20468;-74
2021/12/25 09:03:09;;;;;;;5.03;4.37;;;7.10;99.90;;;;;;4999928;28;20455;-74
2021/12/25 09:05:36;;;;;;;4.60;3.30;;;7.00;99.90;;;;;;5014013;28;20514;-73
2021/12/25 09:08:03;;;;;;;3.60;3.30;;;7.00;99.90;;;;;;5030119;28;20300;-74
2021/12/25 09:10:29;;;;;;;4.27;3.73;;;7.10;99.90;;;;;;5034147;28;20463;-74
2021/12/25 09:12:56;;;;;;;3.80;2.90;;;7.00;99.90;;;;;;5026690;28;20538;-74
2021/12/25 09:15:22;;;;;;;2.57;2.37;;;7.00;99.90;;;;;;5012567;28;20466;-74
2021/12/25 09:17:48;;;;;;;2.63;2.33;;;7.00;99.90;;;;;;5012152;28;20435;-73
2021/12/25 09:20:18;;;;;;;3.30;2.70;;;7.00;99.90;;;;;;5029320;28;20812;-74
2021/12/25 09:22:44;;;;;;;3.43;2.90;;;7.00;99.90;;;;;;5024580;28;20740;-73
2021/12/25 09:25:10;;;;;;;3.67;2.80;;;7.00;99.90;;;;;;5012630;28;20439;-74
2021/12/25 09:27:35;;;;;;;2.83;2.33;;;7.00;99.90;;;;;;5007066;28;20286;-73
2021/12/25 09:30:02;;;;;;;3.37;2.77;;;7.00;99.90;;;;;;5012982;28;20274;-74
2021/12/25 09:32:28;;;;;;;3.27;2.40;;;7.10;99.90;;;;;;5012570;28;20220;-74
2021/12/25 09:34:54;;;;;;;3.30;2.80;;;7.00;99.90;;;;;;5030060;28;20481;-72
2021/12/25 09:37:20;;;;;;;3.50;2.57;;;7.10;99.90;;;;;;5028862;28;20228;-75
2021/12/25 09:39:46;;;;;;;3.47;2.67;;;7.00;99.90;;;;;;5029600;28;20235;-75
2021/12/25 09:42:12;;;;;;;2.80;2.00;;;7.00;99.90;;;;;;5012802;28;20455;-74
2021/12/25 09:44:37;;;;;;;6.00;5.10;;;7.00;99.90;;;;;;5011233;28;20447;-74
2021/12/25 09:47:04;;;;;;;7.10;6.40;;;7.00;99.90;;;;;;5030332;28;20726;-74
2021/12/25 09:49:30;;;;;;;8.10;7.30;;;7.00;99.90;;;;;;5011437;28;20223;-74
2021/12/25 09:51:56;;;;;;;9.30;8.50;;;6.90;99.90;;;;;;5024766;28;20452;-74
2021/12/25 09:54:22;;;;;;;69.60;32.50;;;6.90;99.90;;;;;;5034757;28;20244;-74
2021/12/25 09:56:49;;;;;;;198.40;81.43;;;7.00;99.90;;;;;;5005104;28;20569;-73
2021/12/25 09:59:16;;;;;;;110.03;54.23;;;7.00;99.90;;;;;;4989495;28;20221;-74
2021/12/25 10:01:44;;;;;;;58.03;29.23;;;7.00;99.90;;;;;;5004967;28;20522;-73
2021/12/25 10:04:29;;;;;;;37.87;21.33;;;7.00;99.90;;;;;;5006433;28;20991;-74
2021/12/25 10:06:56;;;;;;;30.17;13.80;;;7.00;99.90;;;;;;5022845;28;20991;-73
2021/12/25 10:09:24;;;;;;;30.20;13.10;;;7.00;99.90;;;;;;4991010;28;20459;-73
2021/12/25 10:12:02;;;;;;;22.60;12.80;;;7.00;99.90;;;;;;4971329;28;20468;-74
2021/12/25 10:14:28;;;;;;;23.90;12.37;;;7.00;99.90;;;;;;5022265;28;20477;-74
2021/12/25 10:16:54;;;;;;;28.33;11.80;;;7.00;99.90;;;;;;5006524;28;20538;-73
2021/12/25 10:19:22;;;;;;;19.37;8.20;;;7.00;99.90;;;;;;5026588;28;20227;-74
2021/12/25 10:22:01;;;;;;;13.30;6.10;;;7.00;99.90;;;;;;5006673;28;20455;-73
2021/12/25 10:24:28;;;;;;;12.93;6.93;;;7.00;99.90;;;;;;5006525;28;20516;-73
2021/12/25 10:27:11;;;;;;;12.77;8.43;;;7.00;99.90;;;;;;5010711;28;25311;-74
2021/12/25 10:29:37;;;;;;;16.23;8.80;;;7.00;99.90;;;;;;5011444;28;20463;-72
2021/12/25 10:32:19;;;;;;;10.63;6.70;;;7.00;99.90;;;;;;5018277;28;20462;-73
2021/12/25 10:34:45;;;;;;;7.00;4.23;;;7.00;99.90;;;;;;5022298;28;20231;-73
2021/12/25 10:37:13;;;;;;;7.40;2.83;;;7.00;99.90;;;;;;5037476;28;20459;-74
2021/12/25 10:39:39;;;;;;;2.80;1.83;;;6.90;99.90;;;;;;5028334;28;20487;-73
2021/12/25 10:42:13;;;;;;;2.93;1.67;;;6.80;99.90;;;;;;4996347;28;20470;-74
2021/12/25 10:44:54;;;;;;;1.33;1.10;;;6.80;99.90;;;;;;5009680;28;20475;-72
2021/12/25 10:47:22;;;;;;;3.93;1.30;;;6.70;99.90;;;;;;5013442;28;20478;-74
2021/12/25 10:49:53;;;;;;;2.40;1.13;;;6.60;99.90;;;;;;5019456;28;20455;-74
2021/12/25 10:52:41;;;;;;;1.57;1.33;;;6.60;99.90;;;;;;5012072;28;20455;-73
2021/12/25 10:55:21;;;;;;;2.97;1.70;;;6.50;99.90;;;;;;5012154;28;20458;-73
2021/12/25 10:57:59;;;;;;;1.77;1.23;;;6.50;99.90;;;;;;5026350;28;20459;-74
2021/12/25 11:00:24;;;;;;;1.47;1.07;;;6.50;99.90;;;;;;5012306;28;20494;-74
2021/12/25 11:02:59;;;;;;;0.70;0.70;;;6.50;99.90;;;;;;5027993;28;20494;-74
2021/12/25 11:05:34;;;;;;;2.10;1.27;;;6.40;99.90;;;;;;5012485;28;20584;-73
2021/12/25 11:08:07;;;;;;;1.33;1.10;;;6.40;99.90;;;;;;5030048;28;20474;-73
2021/12/25 11:10:41;;;;;;;1.13;1.03;;;6.40;99.90;;;;;;5028697;28;20497;-74
2021/12/25 11:13:29;;;;;;;1.43;1.33;;;6.40;99.90;;;;;;5012031;28;20455;-73
2021/12/25 11:16:07;;;;;;;2.07;1.30;;;6.40;99.90;;;;;;5009137;28;20536;-74
2021/12/25 11:19:08;;;;;;;1.00;0.90;;;6.40;99.90;;;;;;5024298;28;20548;-74
2021/12/25 11:21:46;;;;;;;1.23;0.90;;;6.40;99.90;;;;;;5047981;28;20453;-74
2021/12/25 11:24:16;;;;;;;0.80;0.80;;;6.40;99.90;;;;;;5049453;28;20446;-73
2021/12/25 11:26:44;;;;;;;6.57;2.80;;;6.30;99.90;;;;;;5029463;28;20986;-74
2021/12/25 11:29:13;;;;;;;4.70;3.43;;;6.20;99.90;;;;;;5031864;28;20446;-74
2021/12/25 11:31:40;;;;;;;8.87;7.30;;;6.20;99.90;;;;;;5029556;28;21025;-73
2021/12/25 11:34:06;;;;;;;14.27;9.50;;;6.20;99.90;;;;;;5031431;28;20482;-73
2021/12/25 11:36:32;;;;;;;11.27;7.87;;;6.20;99.90;;;;;;5031878;28;20557;-74
2021/12/25 11:38:58;;;;;;;8.67;4.73;;;6.20;99.90;;;;;;5029746;28;21013;-74
2021/12/25 11:41:28;;;;;;;5.43;3.90;;;6.10;99.90;;;;;;5031209;28;20769;-74
2021/12/25 11:43:55;;;;;;;5.80;3.60;;;6.10;99.90;;;;;;5015830;28;20224;-74
2021/12/25 11:46:23;;;;;;;3.50;3.20;;;6.00;99.90;;;;;;5028408;28;20566;-74
2021/12/25 11:49:09;;;;;;;3.23;2.93;;;6.00;99.90;;;;;;5026971;28;20458;-74
2021/12/25 11:51:38;;;;;;;3.07;2.70;;;5.90;99.90;;;;;;5009375;28;20458;-75
2021/12/25 11:54:42;;;;;;;3.03;2.83;;;6.00;99.90;;;;;;5028519;28;20451;-73
2021/12/25 11:59:46;;;;;;;3.07;2.77;;;5.80;99.90;;;;;;5025907;28;20451;-73
2021/12/25 12:02:12;;;;;;;2.40;2.20;;;5.80;99.90;;;;;;5027770;28;20538;-71
2021/12/25 12:04:38;;;;;;;2.93;2.47;;;5.70;99.90;;;;;;5009400;28;20459;-73
2021/12/25 12:07:13;;;;;;;2.43;2.23;;;5.70;99.90;;;;;;5011504;28;20467;-72
2021/12/25 12:10:05;;;;;;;3.13;1.93;;;5.70;99.90;;;;;;5033717;28;20313;-74
2021/12/25 12:12:49;;;;;;;2.60;2.30;;;5.70;99.90;;;;;;5045998;28;20597;-73
2021/12/25 12:15:50;;;;;;;2.60;2.40;;;5.80;99.90;;;;;;5020111;28;21020;-73
2021/12/25 12:18:40;;;;;;;2.30;1.93;;;5.70;99.90;;;;;;5046587;28;20503;-73
2021/12/25 12:21:18;;;;;;;2.33;1.80;;;5.80;99.90;;;;;;5047219;28;20450;-73
2021/12/25 12:26:34;;;;;;;2.00;1.90;;;5.70;99.90;;;;;;5027227;28;20478;-74
2021/12/25 12:29:00;;;;;;;1.63;1.50;;;5.70;99.90;;;;;;5026869;28;20479;-74
2021/12/25 12:31:35;;;;;;;2.00;1.77;;;5.60;99.90;;;;;;5011128;28;20487;-74
2021/12/25 12:34:02;;;;;;;2.20;2.00;;;5.60;99.90;;;;;;5041387;28;20273;-73
2021/12/25 12:36:28;;;;;;;3.13;1.73;;;5.60;99.90;;;;;;5008708;28;20975;-74
2021/12/25 12:39:12;;;;;;;2.53;2.00;;;5.50;99.90;;;;;;4989051;28;20515;-74
2021/12/25 12:41:42;;;;;;;2.70;1.93;;;5.50;99.90;;;;;;4972148;28;20464;-73
2021/12/25 12:44:24;;;;;;;2.50;2.20;;;5.50;99.90;;;;;;5020883;28;20536;-74
2021/12/25 12:46:55;;;;;;;1.97;1.73;;;5.50;99.90;;;;;;4992397;28;20575;-72
2021/12/25 12:49:49;;;;;;;1.60;1.50;;;5.40;99.90;;;;;;5010461;28;20534;-74
2021/12/25 12:52:23;;;;;;;1.90;1.77;;;5.30;99.90;;;;;;4993303;28;20487;-72
2021/12/25 12:54:59;;;;;;;2.80;1.80;;;5.30;99.90;;;;;;5024198;28;20480;-73
2021/12/25 12:57:36;;;;;;;1.70;1.60;;;5.30;99.90;;;;;;5010295;28;20978;-74
2021/12/25 13:00:19;;;;;;;2.13;1.90;;;5.20;99.90;;;;;;5011720;28;21040;-74
2021/12/25 13:02:54;;;;;;;2.00;1.80;;;5.20;99.90;;;;;;5027665;28;20465;-74
2021/12/25 13:05:29;;;;;;;2.40;2.20;;;5.10;99.90;;;;;;5046715;28;20481;-73
2021/12/25 13:07:56;;;;;;;2.50;1.80;;;5.10;99.90;;;;;;5045717;28;20470;-73
2021/12/25 13:10:37;;;;;;;1.97;1.40;;;5.00;99.90;;;;;;5040038;28;20478;-73
2021/12/25 13:13:09;;;;;;;1.93;1.73;;;5.00;99.90;;;;;;5027498;28;20477;-74
2021/12/25 13:15:35;;;;;;;2.10;1.90;;;5.00;99.90;;;;;;5009980;28;20478;-74
2021/12/25 13:18:04;;;;;;;1.97;1.83;;;5.00;99.90;;;;;;5027740;28;20467;-74
2021/12/25 13:20:35;;;;;;;6.00;4.60;;;5.00;99.90;;;;;;5010526;28;21012;-74
2021/12/25 13:23:04;;;;;;;7.47;6.73;;;4.90;99.90;;;;;;5022344;28;20460;-73
2021/12/25 13:25:30;;;;;;;12.30;6.70;;;4.90;99.90;;;;;;5006518;28;20464;-73
2021/12/25 13:28:02;;;;;;;7.10;4.20;;;4.80;99.90;;;;;;5024132;28;20466;-74
2021/12/25 13:30:30;;;;;;;20.37;11.20;;;4.80;99.90;;;;;;5010022;28;20520;-74
2021/12/25 13:33:07;;;;;;;38.40;21.80;;;4.70;99.90;;;;;;5023455;28;20447;-73
2021/12/25 13:35:33;;;;;;;43.83;20.10;;;4.70;99.90;;;;;;5009572;28;20842;-74
2021/12/25 13:38:00;;;;;;;18.70;11.20;;;4.70;99.90;;;;;;5020002;28;20478;-74
2021/12/25 13:40:27;;;;;;;9.40;7.40;;;4.70;99.90;;;;;;5007599;28;20807;-73
2021/12/25 13:42:53;;;;;;;9.23;5.20;;;4.70;99.90;;;;;;5005434;28;20460;-73
2021/12/25 13:45:21;;;;;;;4.07;3.73;;;4.80;99.90;;;;;;5000983;28;20464;-72
2021/12/25 13:47:47;;;;;;;3.40;3.10;;;4.80;99.90;;;;;;5004050;28;20979;-72
2021/12/25 13:50:13;;;;;;;3.10;2.80;;;4.80;99.90;;;;;;5009525;28;21028;-73
2021/12/25 13:52:43;;;;;;;2.97;2.30;;;4.70;99.90;;;;;;4998886;28;20459;-73
2021/12/25 13:55:12;;;;;;;2.57;1.80;;;4.70;99.90;;;;;;5008929;28;20224;-73
2021/12/25 13:57:54;;;;;;;3.00;2.30;;;4.60;99.90;;;;;;5020250;28;20471;-73
2021/12/25 14:00:29;;;;;;;2.33;2.13;;;4.60;99.90;;;;;;4993410;28;20466;-73
2021/12/25 14:03:01;;;;;;;3.57;2.70;;;4.60;99.90;;;;;;5024865;28;20565;-73
2021/12/25 14:05:29;;;;;;;3.50;2.43;;;4.60;99.90;;;;;;5013132;28;20471;-73
2021/12/25 14:07:55;;;;;;;2.80;2.43;;;4.50;99.90;;;;;;5014233;28;20463;-73
2021/12/25 14:10:27;;;;;;;2.77;2.20;;;4.40;99.90;;;;;;5011580;28;20463;-73
2021/12/25 14:12:56;;;;;;;3.33;2.60;;;4.40;99.90;;;;;;5024119;28;20231;-73
2021/12/25 14:15:26;;;;;;;7.13;3.30;;;4.40;99.90;;;;;;4993771;28;20471;-72
2021/12/25 14:17:52;;;;;;;3.60;2.37;;;4.30;99.90;;;;;;5023936;28;20485;-73
2021/12/25 14:20:39;;;;;;;4.00;2.80;;;4.30;99.90;;;;;;5008304;28;20506;-72
2021/12/25 14:23:17;;;;;;;2.50;2.30;;;4.30;99.90;;;;;;5007490;28;20475;-73
2021/12/25 14:26:01;;;;;;;3.07;2.77;;;4.20;99.90;;;;;;5005642;28;20467;-73
2021/12/25 14:28:33;;;;;;;4.93;4.10;;;4.20;99.90;;;;;;5026448;28;20455;-73
2021/12/25 14:31:02;;;;;;;3.93;3.53;;;4.30;99.90;;;;;;5005940;28;20454;-73
2021/12/25 14:33:29;;;;;;;3.40;3.10;;;4.30;99.90;;;;;;5025431;28;20458;-73
2021/12/25 14:35:55;;;;;;;3.10;2.70;;;4.30;99.90;;;;;;5006247;28;20936;-73
2021/12/25 14:38:22;;;;;;;4.47;2.90;;;4.30;99.90;;;;;;5008852;28;20451;-73
2021/12/25 14:40:50;;;;;;;3.50;3.13;;;4.30;99.90;;;;;;5023005;28;20459;-73
2021/12/25 14:43:20;;;;;;;4.20;3.80;;;4.20;99.90;;;;;;5007716;28;20455;-72
2021/12/25 14:45:55;;;;;;;3.40;3.10;;;4.20;99.90;;;;;;5005237;28;20471;-73